Kahului, HI

8:03 PM HST on July 25, 2016 (GMT -1000)
Kahului | | Change Station

Elev 49 ft 20.90 °N, 156.43 °W | Updated 9 minutes ago

Partly Cloudy
Partly Cloudy
80 °F
Feels Like 84 °F
N
8
Wind Variable Wind from East

Today
High -- | Low -- °F
--% Chance of Precip.
Yesterday
High -- | Low -- °F
Precip. -- in
Pressure 29.98 in
Visibility 10.0 miles
Clouds Few 3500 ft
Heat Index 84 °F
Dew Point 72 °F
Humidity 76%
Rainfall 0.00 in
Snow Depth Not available.
5:57 AM 7:06 PM
Waning Gibbous, 58% visible
METAR PHOG 260554Z 10007KT 10SM FEW035 27/22 A2997 RMK AO2 SLP152 T02670222 10339 20267 53021
Pressure 29.98 in
Visibility 10.0 miles
Clouds Few 3500 ft
Heat Index 84 °F
Dew Point 72 °F
Humidity 76%
Rainfall 0.00 in
Snow Depth Not available.
5:57 AM 7:06 PM
Waning Gibbous, 58% visible
METAR PHOG 260554Z 10007KT 10SM FEW035 27/22 A2997 RMK AO2 SLP152 T02670222 10339 20267 53021

10-Day Weather Forecast

Almanac

Astronomy

Jul. 25, 2016 Rise Set
Actual Time
Civil Twilight
Nautical Twilight
Astronomical Twilight
Moon
Length of Visible Light
Length of Day
Tomorrow will be .
, % of the Moon is Illuminated

Today's Extremes

State Highs State Lows

Community

WunderPhotos

Upload Photos

1,927,547 photos uploaded!

WunderBlog® & News

Nearby

Air Quality

  Air Quality AQ Index Pollutant
Not available.

Snow Depth

Station Depth Elevation

Earthquake Activity

City Distance Mag. Time & Date
Minimum magnitude displayed is 2.5.

Coastal Water Temperatures

Place Temperature

Stations

Nearby Weather Stations

Station Location Temp. Windchill Dew Point Humidity Wind Precip. Elev Updated Type
                   

Watches & Warnings

There are currently no watches in effect.